Acme, Wyoming
Current Conditions -  °F | °C
As of 12:53 PM on Monday 24 Nov 2014 (Local Time) from KSHR Reporting Station
Light Snow Light Snow  
Wind Chill: 25°   Ceiling: 3900
Heat Index: 36°   Visibility: 7mi
Dew Point: 23°   Wind: 22mph
Humidity: 59%   Direction: 320°NW
Pressure: 30.07"   Gusts: 36mph
Location:  44.8885°N, 107.104°W
Report Text: KSHR 241953Z AUTO 32019G31KT 7SM -SN FEW031 BKN039 OVC049 02/M05 A3007 RMK AO2 PK WND 31040/1903 SNB49 SLP209 P0000 T00221050 TSNO
Loading
Personal Weather Stations






























Interactive Weather Map New forecast layout! Learn more

10-Day Weather Forecast

Advertisements
Track Severe Weather on mobile